^^
Refsnesbakken Borettslag Station Historical Data
 
Daily Summary for May 06, 2026 Units:  Metric    English   Both
Daily Weekly Monthly Yearly
  Current: High: Low: Average:
Temperature: 10.2 °C 14.1 °C 3.1 °C 7.5 °C
Dew Point: -0.2 °C 1 °C -4.3 °C -2.1 °C
Humidity: 48.6% 69% 29.5% 53%
Wind Speed: 14.8km/h 14.8km/h 3.7km/h 8.9km/h
Wind Gust: 14.8km/h 14.8km/h - -
WindSSW - - SW
Pressure: 1014.7 hPa 1016.5 hPa 1014.4 hPa -
Precipitation: 0.0 mm      
 
 
Tabular Data for May 06, 2026
Time Temperature Dew Point Pressure Wind Wind Speed Wind Gust Humidity Rainfall Rate (Hourly) solar
00:09 6.5 °C -1.9 °C 1015.1 hPa North 7.4 km/h 9.7 km/h 55% 0.0 mm 0 W/m2
00:14 6.4 °C -2.2 °C 1015.1 hPa North 7.4 km/h 8 km/h 54.5% 0.0 mm 0 W/m2
00:19 6.3 °C -2.1 °C 1015.1 hPa North 7.4 km/h 8 km/h 55% 0.0 mm 0 W/m2
00:24 6.2 °C -2.1 °C 1015.1 hPa North 7.4 km/h 8 km/h 55.5% 0.0 mm 0 W/m2
00:29 6 °C -2 °C 1015.0 hPa North 7.4 km/h 8 km/h 56.5% 0.0 mm 0 W/m2
00:34 5.8 °C -2.4 °C 1015.1 hPa North 7.4 km/h 8 km/h 55.4% 0.0 mm 0 W/m2
00:39 5.8 °C -2.6 °C 1015.2 hPa North 7.4 km/h 8 km/h 55% 0.0 mm 0 W/m2
00:44 5.7 °C -2.6 °C 1015.2 hPa North 7.4 km/h 8 km/h 54.8% 0.0 mm 0 W/m2
00:49 5.7 °C -2.7 °C 1015.2 hPa North 7.4 km/h 8 km/h 54.8% 0.0 mm 0 W/m2
00:54 5.7 °C -2.6 °C 1015.1 hPa North 7.4 km/h 8 km/h 55.2% 0.0 mm 0 W/m2
00:59 5.7 °C -2.4 °C 1015.1 hPa North 7.4 km/h 8 km/h 56.3% 0.0 mm 0 W/m2
01:04 5.6 °C -2.3 °C 1015.1 hPa North 7.4 km/h 8 km/h 57% 0.0 mm 0 W/m2
01:09 5.6 °C -2.3 °C 1015.1 hPa North 7.4 km/h 8 km/h 56.8% 0.0 mm 0 W/m2
01:14 5.5 °C -2.3 °C 1015.2 hPa North 7.4 km/h 8 km/h 57% 0.0 mm 0 W/m2
01:19 5.4 °C -2.7 °C 1015.1 hPa North 7.4 km/h 8 km/h 56% 0.0 mm 0 W/m2
01:24 5.4 °C -2.9 °C 1015.1 hPa North 7.4 km/h 8 km/h 55.4% 0.0 mm 0 W/m2
01:29 5.3 °C -2.8 °C 1015.1 hPa North 7.4 km/h 8 km/h 56% 0.0 mm 0 W/m2
01:34 5.2 °C -2.8 °C 1015.1 hPa North 6.7 km/h 8 km/h 56.4% 0.0 mm 0 W/m2
01:39 5.1 °C -2.8 °C 1015.2 hPa North 5.6 km/h 8 km/h 56.7% 0.0 mm 0 W/m2
01:44 5.1 °C -2.8 °C 1015.2 hPa North 5.6 km/h 5.6 km/h 57.1% 0.0 mm 0 W/m2
01:49 5 °C -2.6 °C 1015.2 hPa North 5.6 km/h 5.6 km/h 57.9% 0.0 mm 0 W/m2
01:54 4.9 °C -2.5 °C 1015.2 hPa North 5.6 km/h 5.6 km/h 58.6% 0.0 mm 0 W/m2
01:59 4.9 °C -2.5 °C 1015.2 hPa North 5.6 km/h 5.6 km/h 58.7% 0.0 mm 0 W/m2
02:04 4.9 °C -2.2 °C 1015.2 hPa NNW 7 km/h 7.4 km/h 60.3% 0.0 mm 0 W/m2
02:09 4.8 °C -2.1 °C 1015.2 hPa NNW 7.4 km/h 8 km/h 60.8% 0.0 mm 0 W/m2
02:14 4.8 °C -2.1 °C 1015.2 hPa NNW 7.4 km/h 8 km/h 60.7% 0.0 mm 0 W/m2
02:19 4.8 °C -2 °C 1015.2 hPa NNW 7.4 km/h 8 km/h 61.1% 0.0 mm 0 W/m2
02:24 4.8 °C -2.1 °C 1015.2 hPa NNW 7.4 km/h 8 km/h 60.8% 0.0 mm 0 W/m2
02:29 4.7 °C -2.3 °C 1015.2 hPa NNW 7.4 km/h 8 km/h 60.4% 0.0 mm 0 W/m2
02:34 4.7 °C -2.3 °C 1015.2 hPa NW 6.7 km/h 8 km/h 60.4% 0.0 mm 0 W/m2
02:39 4.7 °C -2.2 °C 1015.2 hPa NW 5.6 km/h 8 km/h 61% 0.0 mm 0 W/m2
02:44 4.7 °C -2.2 °C 1015.2 hPa NW 5.6 km/h 5.6 km/h 61% 0.0 mm 0 W/m2
02:49 4.6 °C -2.1 °C 1015.2 hPa NW 5.6 km/h 5.6 km/h 61.8% 0.0 mm 0 W/m2
02:54 4.6 °C -2 °C 1015.2 hPa NW 5.6 km/h 5.6 km/h 62.4% 0.0 mm 0 W/m2
02:59 4.6 °C -1.8 °C 1015.2 hPa NW 5.6 km/h 5.6 km/h 63.2% 0.0 mm 0 W/m2
03:04 4.5 °C -2.1 °C 1015.3 hPa NW 5.6 km/h 5.6 km/h 62% 0.0 mm 0 W/m2
03:09 4.5 °C -2 °C 1015.3 hPa NW 5.6 km/h 5.6 km/h 63.1% 0.0 mm 0 W/m2
03:14 4.4 °C -1.9 °C 1015.4 hPa NW 5.6 km/h 5.6 km/h 63.8% 0.0 mm 0 W/m2
03:19 4.4 °C -2 °C 1015.4 hPa NW 5.6 km/h 5.6 km/h 63.3% 0.0 mm 0 W/m2
03:24 4.4 °C -1.9 °C 1015.4 hPa NW 5.6 km/h 5.6 km/h 63.5% 0.0 mm 0 W/m2
03:29 4.4 °C -2 °C 1015.5 hPa NW 5.6 km/h 5.6 km/h 63.6% 0.0 mm 0 W/m2
03:34 4.3 °C -2.2 °C 1015.5 hPa North 5.6 km/h 5.6 km/h 63% 0.0 mm 0 W/m2
03:39 4.3 °C -2 °C 1015.5 hPa North 5.6 km/h 5.6 km/h 63.7% 0.0 mm 0 W/m2
03:44 4.2 °C -2.1 °C 1015.6 hPa North 5.6 km/h 5.6 km/h 64% 0.0 mm 0 W/m2
03:49 4 °C -2.2 °C 1015.6 hPa North 5.6 km/h 5.6 km/h 64% 0.0 mm 0 W/m2
03:54 3.8 °C -2.3 °C 1015.6 hPa North 5.6 km/h 5.6 km/h 64.1% 0.0 mm 0 W/m2
03:59 3.9 °C -2.1 °C 1015.6 hPa North 5.6 km/h 5.6 km/h 65% 0.0 mm 0 W/m2
04:04 3.9 °C -2.2 °C 1015.6 hPa NNE 5.6 km/h 5.6 km/h 64.7% 0.0 mm 0 W/m2
04:09 3.9 °C -2.3 °C 1015.6 hPa NNE 5.6 km/h 5.6 km/h 64% 0.0 mm 0 W/m2
04:14 4 °C -2.3 °C 1015.6 hPa NNE 5.6 km/h 5.6 km/h 63.8% 0.0 mm 0 W/m2
04:19 4 °C -2.4 °C 1015.6 hPa NNE 5.6 km/h 5.6 km/h 63.1% 0.0 mm 0 W/m2
04:24 4 °C -2.4 °C 1015.6 hPa NNE 5.6 km/h 5.6 km/h 63.2% 0.0 mm 0 W/m2
04:29 3.9 °C -2.3 °C 1015.6 hPa NNE 5.6 km/h 5.6 km/h 64% 0.0 mm 0 W/m2
04:34 4 °C -2.3 °C 1015.6 hPa North 5.6 km/h 5.6 km/h 64% 0.0 mm 0 W/m2
04:39 3.9 °C -2.3 °C 1015.7 hPa North 5.6 km/h 5.6 km/h 64% 0.0 mm 0 W/m2
04:44 3.9 °C -2.1 °C 1015.6 hPa North 5.6 km/h 5.6 km/h 64.8% 0.0 mm 0 W/m2
04:49 3.9 °C -2.1 °C 1015.6 hPa North 5.6 km/h 5.6 km/h 65% 0.0 mm 0 W/m2
04:54 3.9 °C -2.2 °C 1015.6 hPa North 5.6 km/h 5.6 km/h 64.8% 0.0 mm 0 W/m2
04:59 3.8 °C -2.3 °C 1015.7 hPa North 5.6 km/h 5.6 km/h 64.3% 0.0 mm 0 W/m2
05:04 3.8 °C -2.3 °C 1015.7 hPa NNW 5.6 km/h 5.6 km/h 64.1% 0.0 mm 0 W/m2
05:09 3.8 °C -2.2 °C 1015.8 hPa NNW 5.6 km/h 5.6 km/h 65% 0.0 mm 5 W/m2
05:14 3.8 °C -2.3 °C 1015.7 hPa NNW 5.6 km/h 5.6 km/h 64.4% 0.0 mm 5 W/m2
05:19 3.7 °C -2.3 °C 1015.7 hPa NNW 5.6 km/h 5.6 km/h 64.9% 0.0 mm 7 W/m2
05:24 3.7 °C -2.3 °C 1015.7 hPa NNW 5.6 km/h 5.6 km/h 65% 0.0 mm 7 W/m2
05:29 3.7 °C -2.2 °C 1015.8 hPa NNW 5.6 km/h 5.6 km/h 65.5% 0.0 mm 9 W/m2
05:34 3.6 °C -2.1 °C 1015.8 hPa North 5.6 km/h 5.6 km/h 66% 0.0 mm 9 W/m2
05:39 3.6 °C -2.1 °C 1015.8 hPa North 5.6 km/h 5.6 km/h 66% 0.0 mm 11 W/m2
05:44 3.6 °C -2.2 °C 1015.8 hPa North 5.6 km/h 5.6 km/h 65.9% 0.0 mm 11 W/m2
05:49 3.6 °C -2.2 °C 1015.8 hPa North 5.6 km/h 5.6 km/h 66% 0.0 mm 12 W/m2
05:54 3.6 °C -2.2 °C 1015.9 hPa North 5.6 km/h 5.6 km/h 66% 0.0 mm 12 W/m2
05:59 3.6 °C -2.1 °C 1015.9 hPa North 5.6 km/h 5.6 km/h 66.7% 0.0 mm 12 W/m2
06:04 3.5 °C -2.1 °C 1015.9 hPa NE 5.6 km/h 5.6 km/h 66.5% 0.0 mm 14 W/m2
06:09 3.6 °C -2 °C 1015.9 hPa NE 5.6 km/h 5.6 km/h 67% 0.0 mm 14 W/m2
06:14 3.5 °C -2 °C 1015.9 hPa NE 5.6 km/h 5.6 km/h 67.2% 0.0 mm 14 W/m2
06:19 3.5 °C -2.1 °C 1016.0 hPa NE 5.6 km/h 5.6 km/h 66.7% 0.0 mm 16 W/m2
06:24 3.5 °C -2 °C 1016.0 hPa NE 5.6 km/h 5.6 km/h 67% 0.0 mm 16 W/m2
06:29 3.5 °C -2 °C 1016.0 hPa NE 5.6 km/h 5.6 km/h 67.2% 0.0 mm 16 W/m2
06:34 3.5 °C -2.3 °C 1016.0 hPa NNE 7 km/h 7.4 km/h 66.1% 0.0 mm 18 W/m2
06:39 3.4 °C -2.4 °C 1016.0 hPa North 7.4 km/h 8 km/h 66% 0.0 mm 18 W/m2
06:44 3.4 °C -2.4 °C 1016.0 hPa North 7.4 km/h 8 km/h 66% 0.0 mm 18 W/m2
06:49 3.4 °C -2.4 °C 1016.1 hPa North 7.4 km/h 8 km/h 66% 0.0 mm 18 W/m2
06:54 3.4 °C -2.4 °C 1016.0 hPa North 7.4 km/h 8 km/h 66.1% 0.0 mm 19 W/m2
06:59 3.3 °C -2.2 °C 1016.1 hPa North 7.4 km/h 8 km/h 67% 0.0 mm 19 W/m2
07:04 3.3 °C -2.3 °C 1016.1 hPa NE 6.7 km/h 8 km/h 67% 0.0 mm 19 W/m2
07:09 3.2 °C -2.3 °C 1016.2 hPa NE 5.6 km/h 8 km/h 67% 0.0 mm 19 W/m2
07:14 3.2 °C -2.3 °C 1016.1 hPa NE 5.6 km/h 5.6 km/h 67.5% 0.0 mm 19 W/m2
07:19 3.1 °C -2.4 °C 1016.1 hPa NE 5.6 km/h 5.6 km/h 67% 0.0 mm 21 W/m2
07:24 3.2 °C -2.3 °C 1016.2 hPa NE 5.6 km/h 5.6 km/h 67.1% 0.0 mm 21 W/m2
07:29 3.2 °C -2.1 °C 1016.3 hPa NE 5.6 km/h 5.6 km/h 68% 0.0 mm 21 W/m2
07:34 3.2 °C -2.1 °C 1016.3 hPa NNE 5.6 km/h 5.6 km/h 68% 0.0 mm 21 W/m2
07:39 3.2 °C -2 °C 1016.2 hPa North 5.6 km/h 5.6 km/h 68.5% 0.0 mm 23 W/m2
07:44 3.2 °C -2 °C 1016.1 hPa North 5.6 km/h 5.6 km/h 69% 0.0 mm 23 W/m2
07:49 3.1 °C -2 °C 1016.5 hPa North 5.6 km/h 5.6 km/h 69% 0.0 mm 25 W/m2
07:54 3.1 °C -2.1 °C 1016.2 hPa North 5.6 km/h 5.6 km/h 68.9% 0.0 mm 28 W/m2
07:59 3.1 °C -2.2 °C 1016.2 hPa North 5.6 km/h 5.6 km/h 68% 0.0 mm 25 W/m2
08:04 3.3 °C -2.3 °C 1016.3 hPa North 7 km/h 7.4 km/h 67.1% 0.0 mm 23 W/m2
08:09 3.4 °C -2.3 °C 1016.4 hPa North 7.4 km/h 8 km/h 66.3% 0.0 mm 25 W/m2
08:14 3.5 °C -2.4 °C 1016.3 hPa North 7.4 km/h 8 km/h 65.1% 0.0 mm 25 W/m2
08:19 3.6 °C -2.5 °C 1016.3 hPa North 7.4 km/h 8 km/h 64.7% 0.0 mm 25 W/m2
08:24 3.7 °C -2.3 °C 1016.4 hPa North 7.4 km/h 8 km/h 65% 0.0 mm 26 W/m2
08:29 3.8 °C -2.3 °C 1016.3 hPa North 7.4 km/h 8 km/h 64.9% 0.0 mm 26 W/m2
08:34 3.9 °C -2.3 °C 1016.3 hPa NNE 7.4 km/h 8 km/h 64% 0.0 mm 26 W/m2
08:39 4 °C -2.4 °C 1016.3 hPa NE 7.4 km/h 8 km/h 63.1% 0.0 mm 26 W/m2
08:44 4.2 °C -2.4 °C 1016.3 hPa NE 7.4 km/h 8 km/h 62.4% 0.0 mm 26 W/m2
08:49 4.3 °C -2.3 °C 1016.3 hPa NE 7.4 km/h 8 km/h 62% 0.0 mm 28 W/m2
08:54 4.5 °C -2.2 °C 1016.3 hPa NE 7.4 km/h 8 km/h 62% 0.0 mm 28 W/m2
08:59 4.7 °C -2.2 °C 1016.3 hPa NE 7.4 km/h 8 km/h 61% 0.0 mm 28 W/m2
09:04 4.8 °C -2.1 °C 1016.3 hPa North 11.7 km/h 13 km/h 60.7% 0.0 mm 28 W/m2
09:09 5 °C -2 °C 1016.3 hPa North 13 km/h 13 km/h 60.6% 0.0 mm 30 W/m2
09:14 5.1 °C -1.8 °C 1016.3 hPa North 13 km/h 13 km/h 60.8% 0.0 mm 30 W/m2
09:19 5.2 °C -2 °C 1016.3 hPa North 13 km/h 13 km/h 59.5% 0.0 mm 30 W/m2
09:24 5.4 °C -2.1 °C 1016.4 hPa North 13 km/h 13 km/h 58.7% 0.0 mm 32 W/m2
09:29 5.5 °C -1.8 °C 1016.4 hPa North 13 km/h 13 km/h 59.5% 0.0 mm 32 W/m2
09:34 5.7 °C -1.5 °C 1016.4 hPa NNE 12.3 km/h 13 km/h 59.8% 0.0 mm 501 W/m2
09:39 5.9 °C -1.3 °C 1016.5 hPa NNE 11.1 km/h 12.9 km/h 60% 0.0 mm 510 W/m2
09:44 6.2 °C -1.3 °C 1016.4 hPa NNE 11.1 km/h 11.3 km/h 58.9% 0.0 mm 520 W/m2
09:49 6.5 °C -0.8 °C 1016.5 hPa NNE 11.1 km/h 11.3 km/h 59.4% 0.0 mm 527 W/m2
09:54 6.8 °C -0.7 °C 1016.5 hPa NNE 11.1 km/h 11.3 km/h 58.8% 0.0 mm 538 W/m2
09:59 7 °C -1.1 °C 1016.5 hPa NNE 11.1 km/h 11.3 km/h 56.4% 0.0 mm 548 W/m2
10:04 7.1 °C -1.6 °C 1016.4 hPa North 10.4 km/h 11.3 km/h 53.9% 0.0 mm 559 W/m2
10:09 7.3 °C -1.4 °C 1016.4 hPa North 9.3 km/h 11.3 km/h 54.2% 0.0 mm 568 W/m2
10:14 7.5 °C -1.5 °C 1016.4 hPa North 9.3 km/h 9.7 km/h 53% 0.0 mm 577 W/m2
10:19 7.6 °C -1.3 °C 1016.4 hPa North 9.3 km/h 9.7 km/h 53.2% 0.0 mm 587 W/m2
10:24 7.8 °C -1 °C 1016.5 hPa North 9.3 km/h 9.7 km/h 53.8% 0.0 mm 594 W/m2
10:29 7.9 °C -1.1 °C 1016.4 hPa North 9.3 km/h 9.7 km/h 53.1% 0.0 mm 603 W/m2
10:34 8 °C -1.2 °C 1016.4 hPa NNW 12.3 km/h 13 km/h 52.4% 0.0 mm 613 W/m2
10:39 8.1 °C -1.4 °C 1016.4 hPa NNW 13 km/h 13 km/h 51.3% 0.0 mm 624 W/m2
10:44 8.2 °C -0.9 °C 1016.3 hPa NNW 13 km/h 13 km/h 52.6% 0.0 mm 631 W/m2
10:49 8.4 °C -0.7 °C 1016.3 hPa NNW 13 km/h 13 km/h 52.8% 0.0 mm 640 W/m2
10:54 8.5 °C -0.8 °C 1016.2 hPa NNW 13 km/h 13 km/h 51.8% 0.0 mm 647 W/m2
10:59 8.6 °C -0.7 °C 1016.1 hPa NNW 13 km/h 13 km/h 51.9% 0.0 mm 654 W/m2
11:04 8.8 °C -0.7 °C 1016.1 hPa North 11.6 km/h 13 km/h 51.5% 0.0 mm 661 W/m2
11:09 8.9 °C -1.3 °C 1016.1 hPa NNE 9.3 km/h 12.9 km/h 48.9% 0.0 mm 666 W/m2
11:14 8.7 °C -1.4 °C 1016.1 hPa NNE 9.3 km/h 9.7 km/h 49% 0.0 mm 675 W/m2
11:19 8.8 °C -1.2 °C 1016.1 hPa NNE 9.3 km/h 9.7 km/h 49.6% 0.0 mm 680 W/m2
11:24 9 °C -0.7 °C 1016.1 hPa NNE 9.3 km/h 9.7 km/h 50.6% 0.0 mm 689 W/m2
11:29 9.2 °C -1 °C 1016.1 hPa NNE 9.3 km/h 9.7 km/h 49.1% 0.0 mm 694 W/m2
11:34 9.2 °C -0.8 °C 1016.1 hPa North 9.3 km/h 9.7 km/h 49.3% 0.0 mm 698 W/m2
11:39 9.6 °C -0.4 °C 1016.2 hPa NNW 9.3 km/h 9.7 km/h 49.9% 0.0 mm 705 W/m2
11:44 9.7 °C -0.4 °C 1016.2 hPa NNW 9.3 km/h 9.7 km/h 49.2% 0.0 mm 708 W/m2
11:49 9.7 °C -0.4 °C 1016.2 hPa NNW 9.3 km/h 9.7 km/h 49.2% 0.0 mm 715 W/m2
11:54 9.8 °C -0.7 °C 1016.2 hPa NNW 9.3 km/h 9.7 km/h 47.9% 0.0 mm 721 W/m2
11:59 9.6 °C -0.9 °C 1016.3 hPa NNW 9.3 km/h 9.7 km/h 48.1% 0.0 mm 724 W/m2
12:04 9.6 °C -0.7 °C 1016.3 hPa NNW 8.6 km/h 9.7 km/h 48.6% 0.0 mm 731 W/m2
12:09 9.8 °C -0.8 °C 1016.1 hPa North 7.4 km/h 9.7 km/h 47.7% 0.0 mm 733 W/m2
12:14 10 °C -1.4 °C 1016.1 hPa North 7.4 km/h 8 km/h 45.1% 0.0 mm 738 W/m2
12:19 10.3 °C -1.2 °C 1016.1 hPa North 7.4 km/h 8 km/h 44.6% 0.0 mm 740 W/m2
12:24 10.4 °C -1.9 °C 1016.1 hPa North 7.4 km/h 8 km/h 42.2% 0.0 mm 744 W/m2
12:29 10.5 °C -2.3 °C 1016.1 hPa North 7.4 km/h 8 km/h 40.7% 0.0 mm 747 W/m2
12:34 10.7 °C -3 °C 1016.1 hPa North 7.4 km/h 8 km/h 38.3% 0.0 mm 747 W/m2
12:39 10.5 °C -4.2 °C 1016.1 hPa North 7.4 km/h 8 km/h 35.4% 0.0 mm 751 W/m2
12:44 10.5 °C -4.1 °C 1016.1 hPa NNW 7.4 km/h 8 km/h 35.9% 0.0 mm 752 W/m2
12:49 10.7 °C -3.9 °C 1016.1 hPa NNW 7.4 km/h 8 km/h 35.8% 0.0 mm 752 W/m2
12:54 10.9 °C -3.6 °C 1016.1 hPa NNW 7.4 km/h 8 km/h 35.9% 0.0 mm 756 W/m2
12:59 10.9 °C -3.9 °C 1016.0 hPa NNW 7.4 km/h 8 km/h 35.3% 0.0 mm 756 W/m2
13:04 10.7 °C -3.6 °C 1016.0 hPa WNW 11.8 km/h 13 km/h 36.4% 0.0 mm 759 W/m2
13:09 10.6 °C -3.7 °C 1016.0 hPa West 13 km/h 13 km/h 36.4% 0.0 mm 759 W/m2
13:14 10.5 °C -3.8 °C 1015.9 hPa West 13 km/h 13 km/h 36.5% 0.0 mm 759 W/m2
13:19 10.8 °C -2.4 °C 1015.9 hPa West 13 km/h 13 km/h 39.5% 0.0 mm 759 W/m2
13:24 11.3 °C -3.3 °C 1015.9 hPa West 13 km/h 13 km/h 36% 0.0 mm 759 W/m2
13:29 11.2 °C -2.8 °C 1015.9 hPa West 13 km/h 13 km/h 37.7% 0.0 mm 759 W/m2
13:34 11.4 °C -3 °C 1015.9 hPa West 13 km/h 13 km/h 36.4% 0.0 mm 759 W/m2
13:39 11.9 °C -2.2 °C 1015.8 hPa West 13 km/h 13 km/h 37.5% 0.0 mm 754 W/m2
13:44 12.3 °C -3.3 °C 1015.8 hPa West 13 km/h 13 km/h 33.6% 0.0 mm 754 W/m2
13:49 12.3 °C -4.3 °C 1015.7 hPa West 13 km/h 13 km/h 31.3% 0.0 mm 754 W/m2
13:54 12.5 °C -3.1 °C 1015.6 hPa West 13 km/h 13 km/h 33.5% 0.0 mm 752 W/m2
13:59 12.9 °C -3.8 °C 1015.7 hPa West 13 km/h 13 km/h 31.1% 0.0 mm 749 W/m2
14:04 12.8 °C -3.4 °C 1015.8 hPa WSW 12.2 km/h 13 km/h 32.3% 0.0 mm 756 W/m2
14:09 13 °C -3.8 °C 1015.7 hPa WSW 11.1 km/h 12.9 km/h 30.9% 0.0 mm 758 W/m2
14:14 13 °C -4.1 °C 1015.6 hPa WSW 11.1 km/h 11.3 km/h 30.3% 0.0 mm 761 W/m2
14:19 13.1 °C -4.3 °C 1015.6 hPa WSW 11.1 km/h 11.3 km/h 29.7% 0.0 mm 810 W/m2
14:24 13.4 °C -3.9 °C 1015.5 hPa WSW 11.1 km/h 11.3 km/h 30% 0.0 mm 819 W/m2
14:29 13.7 °C -3.5 °C 1015.4 hPa WSW 11.1 km/h 11.3 km/h 30.2% 0.0 mm 809 W/m2
14:34 13.8 °C -3.6 °C 1015.3 hPa WSW 11.1 km/h 11.3 km/h 29.8% 0.0 mm 759 W/m2
14:39 13.9 °C -3.7 °C 1015.3 hPa WSW 11.1 km/h 11.3 km/h 29.5% 0.0 mm 779 W/m2
14:44 13.9 °C -3.2 °C 1015.3 hPa WSW 11.1 km/h 11.3 km/h 30.5% 0.0 mm 921 W/m2
14:49 14 °C -3.2 °C 1015.3 hPa WSW 11.1 km/h 11.3 km/h 30.5% 0.0 mm 840 W/m2
14:54 13.8 °C -3.3 °C 1015.3 hPa WSW 11.1 km/h 11.3 km/h 30.4% 0.0 mm 770 W/m2
14:59 13.8 °C -3 °C 1015.1 hPa WSW 11.1 km/h 11.3 km/h 31.2% 0.0 mm 816 W/m2
15:04 13.8 °C -3.1 °C 1015.1 hPa WSW 11.1 km/h 11.3 km/h 30.9% 0.0 mm 816 W/m2
15:09 14 °C -3.3 °C 1015.1 hPa WSW 11.1 km/h 11.3 km/h 30.1% 0.0 mm 817 W/m2
15:14 14.1 °C -3.3 °C 1015.0 hPa WSW 11.1 km/h 11.3 km/h 29.8% 0.0 mm 802 W/m2
15:19 14 °C -3.4 °C 1015.0 hPa WSW 11.1 km/h 11.3 km/h 29.8% 0.0 mm 773 W/m2
15:24 14.1 °C -3.1 °C 1015.0 hPa WSW 11.1 km/h 11.3 km/h 30.4% 0.0 mm 740 W/m2
15:29 14 °C -2 °C 1014.9 hPa WSW 11.1 km/h 11.3 km/h 33% 0.0 mm 740 W/m2
15:34 14 °C -2.1 °C 1014.9 hPa WSW 11.1 km/h 11.3 km/h 32.9% 0.0 mm 707 W/m2
15:39 13.7 °C -2.4 °C 1014.8 hPa WSW 11.1 km/h 11.3 km/h 32.8% 0.0 mm 714 W/m2
15:44 12.9 °C -2.8 °C 1014.8 hPa WSW 11.1 km/h 11.3 km/h 33.6% 0.0 mm 703 W/m2
15:49 12.1 °C -3 °C 1014.9 hPa WSW 11.1 km/h 11.3 km/h 34.7% 0.0 mm 694 W/m2
15:54 11.6 °C -2.9 °C 1014.9 hPa WSW 11.1 km/h 11.3 km/h 36.5% 0.0 mm 684 W/m2
15:59 11.3 °C -3.1 °C 1014.8 hPa WSW 11.1 km/h 11.3 km/h 36.3% 0.0 mm 659 W/m2
16:04 11.4 °C -3.4 °C 1014.8 hPa WNW 8.2 km/h 11.3 km/h 35.4% 0.0 mm 652 W/m2
16:09 11.5 °C -2.8 °C 1014.8 hPa NE 3.7 km/h 11.3 km/h 36.8% 0.0 mm 664 W/m2
16:14 11.6 °C -2.5 °C 1014.8 hPa NE 3.7 km/h 3.7 km/h 37.4% 0.0 mm 664 W/m2
16:19 11.5 °C -2.4 °C 1014.8 hPa NE 3.7 km/h 3.7 km/h 37.9% 0.0 mm 550 W/m2
16:24 11.4 °C -2.2 °C 1014.7 hPa NE 3.7 km/h 3.7 km/h 38.8% 0.0 mm 550 W/m2
16:29 11.4 °C -1.9 °C 1014.7 hPa NE 3.7 km/h 3.7 km/h 39.7% 0.0 mm 550 W/m2
16:34 11.3 °C -2 °C 1014.8 hPa NE 11 km/h 13 km/h 39.6% 0.0 mm 533 W/m2
16:39 11.2 °C -1.6 °C 1014.8 hPa SW 13 km/h 13 km/h 40.8% 0.0 mm 568 W/m2
16:44 11.2 °C -1.5 °C 1014.7 hPa SW 13 km/h 13 km/h 41.2% 0.0 mm 483 W/m2
16:49 11.1 °C -1.6 °C 1014.7 hPa SW 13 km/h 13 km/h 41.3% 0.0 mm 404 W/m2
16:54 11 °C -1.6 °C 1014.7 hPa SW 13 km/h 13 km/h 41.4% 0.0 mm 413 W/m2
16:59 11.1 °C -1.3 °C 1014.7 hPa SW 13 km/h 13 km/h 42.3% 0.0 mm 413 W/m2
17:04 10.8 °C -0.9 °C 1014.7 hPa SSW 14.4 km/h 14.8 km/h 44.1% 0.0 mm 369 W/m2
17:09 10.6 °C -0.7 °C 1014.6 hPa SSW 14.8 km/h 14.8 km/h 45.2% 0.0 mm 322 W/m2
17:14 10.8 °C -1 °C 1014.7 hPa SSW 14.8 km/h 14.8 km/h 44.2% 0.0 mm 348 W/m2
17:19 10.8 °C -1 °C 1014.6 hPa SSW 14.8 km/h 14.8 km/h 43.9% 0.0 mm 348 W/m2
17:24 10.7 °C -0.8 °C 1014.6 hPa SSW 14.8 km/h 14.8 km/h 44.9% 0.0 mm 276 W/m2
17:29 10.7 °C -1.2 °C 1014.6 hPa SSW 14.8 km/h 14.8 km/h 43.6% 0.0 mm 283 W/m2
17:34 10.6 °C -0.9 °C 1014.6 hPa SSW 14.8 km/h 14.8 km/h 44.9% 0.0 mm 292 W/m2
17:39 10.6 °C -1.4 °C 1014.6 hPa SSW 14.8 km/h 14.8 km/h 43% 0.0 mm 332 W/m2
17:44 10.6 °C -1 °C 1014.6 hPa SSW 14.8 km/h 14.8 km/h 44.5% 0.0 mm 309 W/m2
17:49 10.5 °C -0.6 °C 1014.5 hPa SSW 14.8 km/h 14.8 km/h 46.1% 0.0 mm 204 W/m2
17:54 10.5 °C -0.6 °C 1014.5 hPa SSW 14.8 km/h 14.8 km/h 46.2% 0.0 mm 236 W/m2
17:59 10.4 °C -0.8 °C 1014.5 hPa SSW 14.8 km/h 14.8 km/h 45.6% 0.0 mm 223 W/m2
18:04 10.3 °C -0.5 °C 1014.4 hPa SSW 14.8 km/h 14.8 km/h 47% 0.0 mm 195 W/m2
18:09 10.3 °C -0.5 °C 1014.5 hPa SSW 14.8 km/h 14.8 km/h 47.2% 0.0 mm 199 W/m2
18:14 10.2 °C 0.2 °C 1014.5 hPa SSW 14.8 km/h 14.8 km/h 49.8% 0.0 mm 272 W/m2
18:19 10.2 °C 0.7 °C 1014.5 hPa SSW 14.8 km/h 14.8 km/h 51.7% 0.0 mm 265 W/m2
18:24 10.3 °C 1 °C 1014.6 hPa SSW 14.8 km/h 14.8 km/h 52.6% 0.0 mm 211 W/m2
18:29 10.3 °C 0.4 °C 1014.6 hPa SSW 14.8 km/h 14.8 km/h 50.3% 0.0 mm 218 W/m2
18:34 10.2 °C 0.2 °C 1014.7 hPa SSW 14.8 km/h 14.8 km/h 49.8% 0.0 mm 200 W/m2
18:39 10.2 °C 0 °C 1014.7 hPa SSW 14.8 km/h 14.8 km/h 49.2% 0.0 mm 200 W/m2
18:44 10.2 °C -0.2 °C 1014.7 hPa SSW 14.8 km/h 14.8 km/h 48.6% 0.0 mm 144 W/m2
Refsnesbakken, Moss, Norway
Compliments of Weather Underground - 2 mb